Time;durP1;ratioP1;P1;durP2;ratioP2;P2;SDS_P1;SDS_P2;PMS_P1;PMS_P2;Temp;Humidity;BMP_temperature;BMP_pressure;BME280_temperature;BME280_humidity;BME280_pressure;Samples;Min_cycle;Max_cycle;Signal;HPM_P1;HPM_P2
2023/05/29 00:01:28;;;;;;;6.10;2.35;;;21.00;57.80;;;;;;6216180;28;20030;-71
2023/05/29 00:04:38;;;;;;;10.18;2.90;;;21.00;57.90;;;;;;6232084;28;20038;-70
2023/05/29 00:07:48;;;;;;;7.68;2.97;;;21.00;57.80;;;;;;6240576;28;20025;-70
2023/05/29 00:11:02;;;;;;;5.40;3.13;;;21.10;57.90;;;;;;6240867;28;20033;-71
2023/05/29 00:14:13;;;;;;;5.20;3.00;;;21.10;57.90;;;;;;6240613;28;20760;-71
2023/05/29 00:17:25;;;;;;;5.97;2.50;;;21.00;57.90;;;;;;6223006;28;20021;-72
2023/05/29 00:20:33;;;;;;;6.63;2.45;;;21.10;58.00;;;;;;6240449;28;20044;-71
2023/05/29 00:23:40;;;;;;;;;;;21.10;58.00;;;;;;6241040;28;20524;-71
2023/05/29 00:26:48;;;;;;;5.75;2.60;;;21.10;57.90;;;;;;6240281;28;19971;-71
2023/05/29 00:29:56;;;;;;;6.03;2.72;;;21.20;57.80;;;;;;6240613;28;20044;-71
2023/05/29 00:33:05;;;;;;;6.90;3.00;;;21.20;57.90;;;;;;6231427;28;20049;-71
2023/05/29 00:36:16;;;;;;;5.70;2.60;;;21.20;57.80;;;;;;6217799;28;20087;-71
2023/05/29 00:39:25;;;;;;;7.78;2.42;;;21.20;57.80;;;;;;6216852;28;20018;-70
2023/05/29 00:42:31;;;;;;;6.50;2.35;;;21.20;57.80;;;;;;6215670;28;20040;-71
2023/05/29 00:45:36;;;;;;;5.47;2.45;;;21.20;57.90;;;;;;6228624;28;20112;-70
2023/05/29 00:48:47;;;;;;;3.13;2.25;;;21.20;57.90;;;;;;6205745;28;20092;-71
2023/05/29 00:52:01;;;;;;;5.50;2.65;;;21.20;58.00;;;;;;6214734;28;20018;-71
2023/05/29 00:55:19;;;;;;;8.50;3.35;;;21.20;58.10;;;;;;6215174;28;20064;-71
2023/05/29 00:58:28;;;;;;;5.20;2.40;;;21.20;58.20;;;;;;6214899;28;20026;-71
2023/05/29 01:01:36;;;;;;;6.68;2.85;;;21.20;58.20;;;;;;6236150;28;20075;-70
2023/05/29 01:04:47;;;;;;;5.78;2.53;;;21.20;58.20;;;;;;6239651;28;20033;-70
2023/05/29 01:07:56;;;;;;;6.03;2.20;;;21.20;58.00;;;;;;6239286;28;20162;-71
2023/05/29 01:11:22;;;;;;;4.43;2.10;;;21.20;57.80;;;;;;6239364;28;20029;-71
2023/05/29 01:15:08;;;;;;;3.78;2.33;;;21.20;57.50;;;;;;6239358;28;20063;-70
2023/05/29 01:18:32;;;;;;;4.70;2.20;;;21.10;57.30;;;;;;6162240;28;20438;-71
2023/05/29 01:21:48;;;;;;;7.50;2.42;;;21.10;57.20;;;;;;6162871;28;20050;-71
2023/05/29 01:25:16;;;;;;;12.27;2.05;;;21.10;57.30;;;;;;6162855;28;20034;-71
2023/05/29 01:28:34;;;;;;;5.25;2.58;;;21.10;57.30;;;;;;6162646;28;20039;-70
2023/05/29 01:31:45;;;;;;;7.30;2.22;;;21.00;57.20;;;;;;6146833;28;20042;-70
2023/05/29 01:34:56;;;;;;;6.30;2.28;;;21.00;57.20;;;;;;6122502;29;20099;-70
2023/05/29 01:38:07;;;;;;;4.18;2.00;;;21.00;57.20;;;;;;6138978;28;20039;-71
2023/05/29 01:41:20;;;;;;;3.55;2.50;;;21.00;57.20;;;;;;6138943;28;20109;-70
2023/05/29 01:44:31;;;;;;;4.70;2.45;;;21.00;57.20;;;;;;6186959;28;20794;-70
2023/05/29 01:47:36;;;;;;;7.75;2.08;;;21.10;57.10;;;;;;6186545;28;20058;-71
2023/05/29 01:50:43;;;;;;;8.30;2.53;;;21.10;57.10;;;;;;6170385;28;20041;-71
2023/05/29 01:53:53;;;;;;;4.65;2.40;;;21.00;57.20;;;;;;6192205;28;20163;-71
2023/05/29 01:57:02;;;;;;;4.35;2.60;;;21.10;57.20;;;;;;6227117;28;20109;-72
2023/05/29 02:00:13;;;;;;;5.70;2.58;;;21.10;57.20;;;;;;6238925;28;20420;-70
2023/05/29 02:03:43;;;;;;;6.07;2.22;;;21.10;57.20;;;;;;6239208;28;20057;-70
2023/05/29 02:06:52;;;;;;;4.05;2.33;;;21.10;57.20;;;;;;6238945;28;20034;-71
2023/05/29 02:10:03;;;;;;;5.20;2.78;;;21.10;57.30;;;;;;6238472;28;20057;-71
2023/05/29 02:13:13;;;;;;;6.93;2.83;;;21.00;57.40;;;;;;6242333;28;20037;-70
2023/05/29 02:16:27;;;;;;;6.32;2.53;;;21.00;57.50;;;;;;6243147;28;20030;-70
2023/05/29 02:19:39;;;;;;;8.18;2.75;;;21.00;57.70;;;;;;6243079;28;20063;-71
2023/05/29 02:22:47;;;;;;;5.03;2.50;;;21.00;57.80;;;;;;6243249;28;20037;-70
2023/05/29 02:25:57;;;;;;;11.77;2.53;;;21.00;57.90;;;;;;6226032;28;20067;-70
2023/05/29 02:29:15;;;;;;;4.45;2.25;;;20.90;57.80;;;;;;6242961;28;20029;-71
2023/05/29 02:32:27;;;;;;;3.90;2.15;;;20.90;57.80;;;;;;6238505;28;20037;-72
2023/05/29 02:35:36;;;;;;;5.25;2.22;;;20.90;57.80;;;;;;6218573;28;20029;-72
2023/05/29 02:38:46;;;;;;;6.47;2.72;;;20.90;57.80;;;;;;6236600;28;20044;-71
2023/05/29 02:41:53;;;;;;;;;;;20.80;57.80;;;;;;6243171;28;20025;-70
2023/05/29 02:45:02;;;;;;;10.18;2.90;;;20.80;58.10;;;;;;6242882;28;19928;-72
2023/05/29 02:48:11;;;;;;;6.88;3.10;;;20.90;58.30;;;;;;6242545;28;20036;-70
2023/05/29 02:51:25;;;;;;;4.88;2.90;;;20.80;58.70;;;;;;6239674;28;20037;-70
2023/05/29 02:54:32;;;;;;;5.50;2.83;;;20.80;59.10;;;;;;6240575;28;20426;-72
2023/05/29 02:57:42;;;;;;;11.18;3.50;;;20.80;59.40;;;;;;6242203;28;20135;-71
2023/05/29 03:00:52;;;;;;;5.45;2.80;;;20.70;59.60;;;;;;6242539;28;20033;-71
2023/05/29 03:04:04;;;;;;;9.10;3.22;;;20.70;59.80;;;;;;6223961;28;20029;-70
2023/05/29 03:07:15;;;;;;;6.65;3.42;;;20.60;60.00;;;;;;6242109;28;20131;-71
2023/05/29 03:10:29;;;;;;;9.80;2.65;;;20.70;60.00;;;;;;6242339;28;20037;-71
2023/05/29 03:13:40;;;;;;;5.03;2.70;;;20.50;60.10;;;;;;6242493;28;20051;-70
2023/05/29 03:16:50;;;;;;;6.72;3.60;;;20.50;60.10;;;;;;6241800;28;20033;-72
2023/05/29 03:20:00;;;;;;;6.60;2.67;;;20.40;60.10;;;;;;6241560;28;20029;-70
2023/05/29 03:23:13;;;;;;;6.85;3.08;;;20.50;60.20;;;;;;6240918;28;20132;-71
2023/05/29 03:26:28;;;;;;;6.53;3.00;;;20.40;60.10;;;;;;6241538;28;20064;-70
2023/05/29 03:29:40;;;;;;;6.45;2.90;;;20.40;60.20;;;;;;6241509;28;20183;-70
2023/05/29 03:32:47;;;;;;;6.95;2.53;;;20.40;60.50;;;;;;6223030;28;20033;-70
2023/05/29 03:36:00;;;;;;;11.95;3.17;;;20.30;60.70;;;;;;6241671;28;20056;-69
2023/05/29 03:39:12;;;;;;;9.75;3.15;;;20.30;60.90;;;;;;6223989;28;20030;-70
2023/05/29 03:42:22;;;;;;;5.38;2.90;;;20.30;60.90;;;;;;6241258;28;20056;-70
2023/05/29 03:45:31;;;;;;;9.95;3.58;;;20.30;61.10;;;;;;6224073;28;20508;-70
2023/05/29 03:48:38;;;;;;;6.50;2.65;;;20.20;61.00;;;;;;6237436;28;20128;-72
2023/05/29 03:51:46;;;;;;;7.18;3.05;;;20.20;61.20;;;;;;6240830;28;20028;-70
2023/05/29 03:54:53;;;;;;;5.90;3.00;;;20.20;61.40;;;;;;6240757;28;20033;-71
2023/05/29 03:58:03;;;;;;;5.30;2.88;;;20.20;61.60;;;;;;6218275;28;20076;-70
2023/05/29 04:01:14;;;;;;;6.70;2.90;;;20.20;61.80;;;;;;6216284;28;20034;-70
2023/05/29 04:04:25;;;;;;;7.10;3.38;;;20.10;61.90;;;;;;6216210;28;20030;-71
2023/05/29 04:07:36;;;;;;;5.38;2.90;;;20.30;62.10;;;;;;6198863;28;20061;-70
2023/05/29 04:10:53;;;;;;;8.88;3.47;;;20.10;62.10;;;;;;6198819;28;20793;-70
2023/05/29 04:14:04;;;;;;;8.98;3.03;;;20.10;62.40;;;;;;6198740;28;20034;-71
2023/05/29 04:17:14;;;;;;;8.13;3.00;;;20.00;62.40;;;;;;6215740;28;20124;-71
2023/05/29 04:20:25;;;;;;;7.30;2.67;;;20.10;62.80;;;;;;6215960;28;20022;-72
2023/05/29 04:23:40;;;;;;;10.15;3.10;;;20.00;62.90;;;;;;6198665;28;20054;-70
2023/05/29 04:26:52;;;;;;;8.60;3.05;;;20.00;63.10;;;;;;6215988;28;20112;-70
2023/05/29 04:30:02;;;;;;;5.05;3.00;;;20.00;63.20;;;;;;6223814;28;20033;-69
2023/05/29 04:33:25;;;;;;;5.97;3.33;;;20.00;63.20;;;;;;6240172;28;20064;-69
2023/05/29 04:36:37;;;;;;;6.18;3.47;;;20.10;63.30;;;;;;6239265;28;20040;-70
2023/05/29 04:39:53;;;;;;;9.52;3.42;;;20.10;63.10;;;;;;6240220;28;20507;-70
2023/05/29 04:43:09;;;;;;;5.85;3.10;;;20.10;63.00;;;;;;6241205;28;20112;-71
2023/05/29 04:46:51;;;;;;;7.00;3.17;;;20.00;63.00;;;;;;6163876;28;20070;-70
2023/05/29 04:49:59;;;;;;;5.88;2.95;;;20.10;63.10;;;;;;6163961;28;20042;-70
2023/05/29 04:53:10;;;;;;;8.90;3.65;;;20.10;63.10;;;;;;6155134;28;20058;-70
2023/05/29 04:56:25;;;;;;;8.40;3.45;;;20.10;63.20;;;;;;6148078;28;20601;-71
2023/05/29 04:59:31;;;;;;;8.02;3.90;;;20.10;63.30;;;;;;6162817;28;20038;-72
2023/05/29 05:02:44;;;;;;;7.72;3.33;;;20.00;63.30;;;;;;6163051;28;20121;-71
2023/05/29 05:05:57;;;;;;;6.05;2.92;;;20.00;63.40;;;;;;6147338;28;20101;-70
2023/05/29 05:09:09;;;;;;;8.25;3.38;;;20.10;63.40;;;;;;6162664;28;20053;-70
2023/05/29 05:12:24;;;;;;;8.88;3.80;;;20.30;63.60;;;;;;6146647;28;20038;-71
2023/05/29 05:15:30;;;;;;;5.85;3.30;;;20.10;63.60;;;;;;6162895;28;20039;-71
2023/05/29 05:18:41;;;;;;;6.53;3.15;;;20.10;63.60;;;;;;6145968;28;20031;-70
2023/05/29 05:21:53;;;;;;;7.03;3.40;;;20.10;63.60;;;;;;6173972;28;20130;-70
2023/05/29 05:25:11;;;;;;;7.63;3.33;;;20.10;63.60;;;;;;6239029;28;20409;-71
2023/05/29 05:28:27;;;;;;;10.93;3.20;;;20.20;63.60;;;;;;6214285;28;20041;-71
2023/05/29 05:31:31;;;;;;;4.95;3.03;;;20.20;63.40;;;;;;6214631;28;20037;-71
2023/05/29 05:34:36;;;;;;;5.95;3.38;;;20.30;63.30;;;;;;6212615;28;20099;-71
2023/05/29 05:37:45;;;;;;;7.45;3.50;;;20.30;63.20;;;;;;6214656;28;20449;-70
2023/05/29 05:40:52;;;;;;;4.75;2.90;;;20.30;63.00;;;;;;6202309;28;20033;-70
2023/05/29 05:44:03;;;;;;;8.93;3.10;;;20.40;62.70;;;;;;6239186;28;20033;-71
2023/05/29 05:47:32;;;;;;;5.72;2.78;;;20.40;62.50;;;;;;6238179;28;20041;-71
2023/05/29 05:50:41;;;;;;;5.32;3.55;;;20.50;62.20;;;;;;6239056;28;20033;-71
2023/05/29 05:53:52;;;;;;;7.32;3.25;;;20.50;61.90;;;;;;6238919;28;20025;-71
2023/05/29 05:57:00;;;;;;;;;;;20.60;61.80;;;;;;6225255;28;20030;-71
2023/05/29 06:00:13;;;;;;;5.57;3.22;;;20.60;61.40;;;;;;6214776;28;19917;-71
2023/05/29 06:03:22;;;;;;;8.73;3.15;;;20.70;61.20;;;;;;6198237;28;20046;-71
2023/05/29 06:06:47;;;;;;;8.23;3.25;;;20.70;61.30;;;;;;6215075;28;20030;-72
2023/05/29 06:09:52;;;;;;;7.25;3.25;;;20.70;61.20;;;;;;6214876;28;20026;-72
2023/05/29 06:13:03;;;;;;;9.27;3.13;;;20.70;61.10;;;;;;6214647;28;20049;-71
2023/05/29 06:16:23;;;;;;;12.00;2.90;;;20.80;61.00;;;;;;6196990;28;20053;-71
2023/05/29 06:19:35;;;;;;;9.40;3.95;;;20.90;60.60;;;;;;6214619;28;20030;-72
2023/05/29 06:22:41;;;;;;;7.18;3.38;;;21.00;60.40;;;;;;6224161;28;20154;-72
2023/05/29 06:25:51;;;;;;;7.53;3.95;;;21.10;60.00;;;;;;6239082;28;20041;-70
2023/05/29 06:28:59;;;;;;;9.68;3.97;;;21.10;59.80;;;;;;6239084;28;20560;-70
2023/05/29 06:32:07;;;;;;;7.78;4.13;;;21.20;59.60;;;;;;6238420;28;20030;-71
2023/05/29 06:35:13;;;;;;;9.83;4.03;;;21.30;59.30;;;;;;6239057;28;20024;-71
2023/05/29 06:38:25;;;;;;;12.93;4.18;;;21.40;59.30;;;;;;6238003;28;20036;-72
2023/05/29 06:41:34;;;;;;;5.80;3.30;;;21.50;59.00;;;;;;6238704;28;20113;-71
2023/05/29 06:44:40;;;;;;;6.50;2.78;;;21.60;58.70;;;;;;6238733;28;20025;-71
2023/05/29 06:47:48;;;;;;;11.70;3.45;;;21.70;58.20;;;;;;6238225;28;20174;-72
2023/05/29 06:50:56;;;;;;;6.63;2.80;;;21.80;58.00;;;;;;6238463;28;20128;-72
2023/05/29 06:54:21;;;;;;;8.30;3.42;;;21.90;57.50;;;;;;6213813;28;20041;-71
2023/05/29 06:57:30;;;;;;;11.15;3.88;;;22.00;57.40;;;;;;6232117;28;20026;-72
2023/05/29 07:00:36;;;;;;;9.45;3.42;;;22.10;57.30;;;;;;6242647;28;20242;-72
2023/05/29 07:04:08;;;;;;;8.48;3.50;;;22.20;57.20;;;;;;6118629;29;20178;-72
2023/05/29 07:07:22;;;;;;;5.47;3.03;;;22.20;56.80;;;;;;6118618;29;20127;-71
2023/05/29 07:10:31;;;;;;;8.40;3.80;;;22.40;57.20;;;;;;6118471;29;20068;-73
2023/05/29 07:13:39;;;;;;;6.88;3.60;;;22.50;56.30;;;;;;6118253;29;20094;-73
2023/05/29 07:16:42;;;;;;;6.60;2.90;;;22.60;55.90;;;;;;6118258;29;20031;-71
2023/05/29 07:19:55;;;;;;;10.75;3.97;;;22.70;55.50;;;;;;6134263;29;20174;-70
2023/05/29 07:23:09;;;;;;;5.40;3.25;;;22.80;55.20;;;;;;6141632;29;20054;-70
2023/05/29 07:26:17;;;;;;;13.65;3.72;;;22.90;55.30;;;;;;6125967;28;20035;-71
2023/05/29 07:29:27;;;;;;;8.80;4.03;;;23.00;54.80;;;;;;6125516;29;20475;-70
2023/05/29 07:32:36;;;;;;;5.05;2.88;;;23.10;54.70;;;;;;6135411;29;20089;-71
2023/05/29 07:35:43;;;;;;;9.27;2.90;;;23.20;54.20;;;;;;6115536;29;20524;-70
2023/05/29 07:38:53;;;;;;;6.03;2.75;;;23.30;53.80;;;;;;6117259;29;20194;-71
2023/05/29 07:42:07;;;;;;;14.77;3.30;;;23.30;53.40;;;;;;6227241;28;20182;-72
2023/05/29 07:45:22;;;;;;;12.85;2.88;;;23.50;53.40;;;;;;6241869;28;20131;-70
2023/05/29 07:48:30;;;;;;;7.65;2.92;;;23.60;53.20;;;;;;6241652;28;20398;-71
2023/05/29 07:51:41;;;;;;;7.22;3.00;;;23.70;52.50;;;;;;6241234;28;20030;-71
2023/05/29 07:54:49;;;;;;;6.75;3.08;;;23.90;52.20;;;;;;6241026;28;20064;-70
2023/05/29 07:58:01;;;;;;;7.47;3.70;;;24.00;51.60;;;;;;6219177;28;20062;-71
2023/05/29 08:01:13;;;;;;;11.02;3.58;;;24.10;50.80;;;;;;6199077;28;20090;-71
2023/05/29 08:04:22;;;;;;;11.98;3.85;;;24.20;50.70;;;;;;6217023;28;20118;-71
2023/05/29 08:07:32;;;;;;;8.48;2.95;;;24.30;50.60;;;;;;6216894;28;20069;-74
2023/05/29 08:10:41;;;;;;;7.03;3.60;;;24.50;50.30;;;;;;6215918;28;20037;-70
2023/05/29 08:13:50;;;;;;;9.25;4.22;;;24.70;50.00;;;;;;6199124;28;20026;-71
2023/05/29 08:17:01;;;;;;;10.43;3.72;;;24.80;49.60;;;;;;6240677;28;20028;-72
2023/05/29 08:20:14;;;;;;;10.57;4.80;;;24.90;49.20;;;;;;6240851;28;20021;-71
2023/05/29 08:23:25;;;;;;;34.95;9.20;;;25.00;48.80;;;;;;6240753;28;20381;-70
2023/05/29 08:26:32;;;;;;;13.63;3.75;;;25.00;48.40;;;;;;6240500;28;20120;-71
2023/05/29 08:29:41;;;;;;;8.55;3.75;;;25.10;48.40;;;;;;6222879;28;20052;-70
2023/05/29 08:32:47;;;;;;;18.13;4.93;;;25.10;48.10;;;;;;6232365;28;20030;-71
2023/05/29 08:36:03;;;;;;;6.75;3.10;;;25.20;47.70;;;;;;6215807;28;20025;-71
2023/05/29 08:39:14;;;;;;;6.93;2.78;;;25.30;47.10;;;;;;6215334;28;20387;-71
2023/05/29 08:42:47;;;;;;;12.00;3.60;;;25.40;46.90;;;;;;6215616;28;20061;-70
2023/05/29 08:46:04;;;;;;;6.57;2.80;;;25.50;46.10;;;;;;6198122;28;20034;-71
2023/05/29 08:49:22;;;;;;;6.55;3.13;;;25.60;45.90;;;;;;6215426;28;20037;-71
2023/05/29 08:52:30;;;;;;;5.63;2.50;;;25.80;45.60;;;;;;6227398;28;20056;-71
2023/05/29 08:55:40;;;;;;;5.68;3.05;;;25.90;44.30;;;;;;6218942;28;20033;-71
2023/05/29 08:58:52;;;;;;;7.15;2.70;;;26.00;44.10;;;;;;6215002;28;20113;-71
2023/05/29 09:02:04;;;;;;;5.07;2.70;;;26.00;43.50;;;;;;6215294;28;20034;-72
2023/05/29 09:05:17;;;;;;;3.92;2.58;;;26.00;43.80;;;;;;6215118;28;20033;-73
2023/05/29 09:08:23;;;;;;;5.25;2.42;;;26.00;43.40;;;;;;6214700;28;20091;-71
2023/05/29 09:11:30;;;;;;;8.70;3.88;;;26.20;43.60;;;;;;6224909;28;20044;-71
2023/05/29 09:14:47;;;;;;;9.55;4.05;;;26.30;43.80;;;;;;6221607;28;20445;-70
2023/05/29 09:17:57;;;;;;;11.48;5.05;;;26.40;42.90;;;;;;6239187;28;20037;-70
2023/05/29 09:21:33;;;;;;;7.75;3.22;;;26.50;42.50;;;;;;6238885;28;20037;-71
2023/05/29 09:24:41;;;;;;;11.30;3.92;;;26.60;42.10;;;;;;6239417;28;20124;-70
2023/05/29 09:27:52;;;;;;;6.32;2.92;;;26.70;42.00;;;;;;6238958;28;20142;-70
2023/05/29 09:31:00;;;;;;;8.32;3.35;;;26.70;41.90;;;;;;6239624;28;20033;-71
2023/05/29 09:34:12;;;;;;;5.82;2.70;;;26.80;41.60;;;;;;6239317;28;20523;-71
2023/05/29 09:37:24;;;;;;;7.72;3.70;;;26.80;41.20;;;;;;6239604;28;20021;-70
2023/05/29 09:40:37;;;;;;;9.13;3.92;;;26.70;41.20;;;;;;6239376;28;20501;-72
2023/05/29 09:43:55;;;;;;;8.15;3.33;;;26.70;41.20;;;;;;6239473;28;20118;-71
2023/05/29 09:47:10;;;;;;;7.85;2.55;;;26.80;41.40;;;;;;6238805;28;20079;-71
2023/05/29 09:50:28;;;;;;;8.10;3.15;;;26.80;40.90;;;;;;6238730;28;20030;-71
2023/05/29 09:53:43;;;;;;;8.23;3.45;;;26.90;41.30;;;;;;6238357;28;20034;-72
2023/05/29 09:56:52;;;;;;;6.00;2.80;;;26.90;40.30;;;;;;6226080;28;20502;-71
2023/05/29 09:59:59;;;;;;;7.78;3.22;;;26.80;40.30;;;;;;6214570;28;20101;-72
2023/05/29 10:03:08;;;;;;;7.95;2.85;;;26.90;40.10;;;;;;6214463;28;20034;-72
2023/05/29 10:06:21;;;;;;;6.97;2.50;;;27.00;40.10;;;;;;6214143;28;20095;-72
2023/05/29 10:09:28;;;;;;;10.88;4.22;;;27.10;39.70;;;;;;6237740;28;20040;-70
2023/05/29 10:12:41;;;;;;;5.68;3.03;;;27.20;39.60;;;;;;6238671;28;20115;-72
2023/05/29 10:15:54;;;;;;;6.05;3.05;;;27.20;40.10;;;;;;6220673;28;20082;-70
2023/05/29 10:19:01;;;;;;;9.43;3.42;;;27.30;40.50;;;;;;6238244;28;20150;-71
2023/05/29 10:22:18;;;;;;;7.10;3.50;;;27.30;40.60;;;;;;6217650;28;20053;-71
2023/05/29 10:25:30;;;;;;;7.43;3.35;;;27.40;40.70;;;;;;6238655;28;20025;-71
2023/05/29 10:28:36;;;;;;;3.88;2.72;;;27.50;40.30;;;;;;6220458;28;20026;-71
2023/05/29 10:32:20;;;;;;;13.48;4.70;;;27.60;40.20;;;;;;6238495;28;20022;-72
2023/05/29 10:35:45;;;;;;;5.85;3.10;;;27.60;40.30;;;;;;6241748;28;20171;-73
2023/05/29 10:38:57;;;;;;;7.28;2.92;;;27.80;40.30;;;;;;6242750;28;20029;-72
2023/05/29 10:42:24;;;;;;;12.20;3.50;;;27.90;40.20;;;;;;6225331;28;20025;-72
2023/05/29 10:45:33;;;;;;;7.30;3.50;;;28.00;39.90;;;;;;6242959;28;20095;-72
2023/05/29 10:48:41;;;;;;;13.10;3.25;;;28.10;39.50;;;;;;6242470;28;20129;-71
2023/05/29 10:51:48;;;;;;;8.35;2.70;;;28.40;39.50;;;;;;6242945;28;20108;-71
2023/05/29 10:55:03;;;;;;;4.22;2.95;;;28.30;39.00;;;;;;6224263;28;20159;-71
2023/05/29 10:58:13;;;;;;;4.63;2.75;;;28.40;38.90;;;;;;6218409;28;20022;-71
2023/05/29 11:01:29;;;;;;;9.23;3.40;;;28.70;38.60;;;;;;6217824;28;20195;-71
2023/05/29 11:04:36;;;;;;;5.55;2.85;;;29.70;37.30;;;;;;6232927;28;20037;-71
2023/05/29 11:08:00;;;;;;;4.95;2.95;;;30.70;35.70;;;;;;6242312;28;20037;-71
2023/05/29 11:11:17;;;;;;;7.28;3.40;;;31.70;34.20;;;;;;6242118;28;20033;-70
2023/05/29 11:14:25;;;;;;;6.20;3.28;;;32.50;32.90;;;;;;6242257;28;20520;-72
2023/05/29 11:17:46;;;;;;;7.32;3.47;;;33.20;31.70;;;;;;6223726;28;20107;-71
2023/05/29 11:20:58;;;;;;;6.97;2.97;;;33.60;30.80;;;;;;6240125;28;20029;-71
2023/05/29 11:24:11;;;;;;;7.35;3.25;;;34.20;30.30;;;;;;6223678;28;20030;-72
2023/05/29 11:27:24;;;;;;;5.18;2.78;;;34.60;29.80;;;;;;6222736;28;20085;-71
2023/05/29 11:30:40;;;;;;;5.70;2.85;;;34.90;29.40;;;;;;6241565;28;20041;-73
2023/05/29 11:33:50;;;;;;;5.60;3.08;;;35.10;29.20;;;;;;6241438;28;20040;-71
2023/05/29 11:37:01;;;;;;;8.88;3.78;;;35.50;29.00;;;;;;6241483;28;20045;-72
2023/05/29 11:40:16;;;;;;;4.78;2.80;;;35.70;28.70;;;;;;6241716;28;20029;-72
2023/05/29 11:43:29;;;;;;;6.57;3.42;;;35.80;28.50;;;;;;6223129;28;20381;-73
2023/05/29 11:46:37;;;;;;;5.70;3.25;;;36.00;28.40;;;;;;6241047;28;20035;-72
2023/05/29 11:49:45;;;;;;;8.40;4.05;;;36.20;28.50;;;;;;6241305;28;20051;-72
2023/05/29 11:52:54;;;;;;;5.22;3.00;;;36.40;28.40;;;;;;6223296;28;20714;-72
2023/05/29 11:56:12;;;;;;;8.32;3.85;;;36.40;28.30;;;;;;6235233;28;20030;-73
2023/05/29 11:59:25;;;;;;;10.23;2.88;;;36.40;28.80;;;;;;6219694;28;20037;-72
2023/05/29 12:02:33;;;;;;;9.80;3.40;;;36.60;27.90;;;;;;6241484;28;20040;-73
2023/05/29 12:05:55;;;;;;;6.25;3.10;;;36.60;27.80;;;;;;6242128;28;20036;-73
2023/05/29 12:09:03;;;;;;;4.95;3.22;;;36.60;27.90;;;;;;6240980;28;20100;-72
2023/05/29 12:12:10;;;;;;;7.45;3.50;;;36.70;27.70;;;;;;6222840;28;20037;-72
2023/05/29 12:15:27;;;;;;;7.05;2.97;;;37.10;27.30;;;;;;6237999;28;20108;-72
2023/05/29 12:18:36;;;;;;;10.95;3.25;;;37.40;27.00;;;;;;6240795;28;20108;-72
2023/05/29 12:21:44;;;;;;;4.35;3.17;;;37.30;26.80;;;;;;6240646;28;20025;-73
2023/05/29 12:24:53;;;;;;;6.15;3.22;;;37.10;27.00;;;;;;6239872;28;20033;-73
2023/05/29 12:28:10;;;;;;;10.55;4.15;;;37.00;26.90;;;;;;6240219;28;20029;-72
2023/05/29 12:31:39;;;;;;;7.13;3.53;;;37.10;27.00;;;;;;6240402;28;20082;-72
2023/05/29 12:34:50;;;;;;;10.70;3.50;;;37.40;26.70;;;;;;6216588;28;20033;-71
2023/05/29 12:38:01;;;;;;;3.80;2.83;;;37.40;26.50;;;;;;6215678;28;20026;-73
2023/05/29 12:41:36;;;;;;;9.98;3.10;;;37.50;26.40;;;;;;6215821;28;20030;-72
2023/05/29 12:44:46;;;;;;;5.45;3.20;;;37.90;26.10;;;;;;6215571;28;20030;-73
2023/05/29 12:48:11;;;;;;;7.93;4.05;;;38.40;25.50;;;;;;6215473;28;20092;-72
2023/05/29 12:51:32;;;;;;;4.85;2.97;;;38.70;25.10;;;;;;6215343;28;20049;-72
2023/05/29 12:54:44;;;;;;;13.02;3.55;;;38.70;24.70;;;;;;6215102;28;20032;-72
2023/05/29 12:57:55;;;;;;;4.80;3.05;;;38.80;24.60;;;;;;6235730;28;20095;-73
2023/05/29 13:01:08;;;;;;;8.95;3.85;;;39.00;24.50;;;;;;6240191;28;20030;-74
2023/05/29 13:04:21;;;;;;;5.43;3.65;;;39.20;24.30;;;;;;6222924;28;20060;-73
2023/05/29 13:07:30;;;;;;;4.75;3.38;;;39.20;24.20;;;;;;6222162;28;20087;-72
2023/05/29 13:10:42;;;;;;;6.18;3.33;;;39.20;24.10;;;;;;6236591;28;20600;-73
2023/05/29 13:13:47;;;;;;;4.53;3.22;;;39.60;23.80;;;;;;6222495;28;20040;-72
2023/05/29 13:16:56;;;;;;;10.33;3.53;;;40.00;23.60;;;;;;6239839;28;20060;-73
2023/05/29 13:20:09;;;;;;;7.28;3.50;;;40.40;23.10;;;;;;6239758;28;20043;-73
2023/05/29 13:23:17;;;;;;;8.38;3.47;;;40.50;22.80;;;;;;6239387;28;20036;-74
2023/05/29 13:26:30;;;;;;;6.57;3.53;;;40.60;22.70;;;;;;6240913;28;20034;-73
2023/05/29 13:29:40;;;;;;;6.00;3.22;;;41.10;22.50;;;;;;6239252;28;20150;-72
2023/05/29 13:32:47;;;;;;;7.40;3.63;;;41.80;22.00;;;;;;6238821;28;20041;-72
2023/05/29 13:35:55;;;;;;;6.70;3.13;;;42.00;21.50;;;;;;6239315;28;20029;-73
2023/05/29 13:39:03;;;;;;;8.82;2.97;;;42.10;21.30;;;;;;6238904;28;20128;-73
2023/05/29 13:42:14;;;;;;;6.13;3.22;;;42.60;21.00;;;;;;6220641;28;20134;-72
2023/05/29 13:45:27;;;;;;;6.65;3.63;;;43.60;20.60;;;;;;6239338;28;20578;-72
2023/05/29 13:48:36;;;;;;;7.88;3.83;;;44.40;20.00;;;;;;6239101;28;20032;-72
2023/05/29 13:51:48;;;;;;;9.35;3.97;;;44.90;19.60;;;;;;6238718;28;20071;-73
2023/05/29 13:54:57;;;;;;;7.55;3.53;;;45.30;19.20;;;;;;6239028;28;20170;-74
2023/05/29 13:58:08;;;;;;;10.60;3.50;;;45.60;18.80;;;;;;6215680;28;20116;-73
2023/05/29 14:01:21;;;;;;;5.75;3.22;;;45.70;18.70;;;;;;6214429;28;20153;-73
2023/05/29 14:04:31;;;;;;;4.03;3.08;;;46.00;18.60;;;;;;6196384;28;20046;-72
2023/05/29 14:07:41;;;;;;;7.93;4.00;;;46.30;18.40;;;;;;6225271;28;20089;-72
2023/05/29 14:10:51;;;;;;;13.70;3.63;;;46.00;18.30;;;;;;6243941;28;20060;-72
2023/05/29 14:14:05;;;;;;;6.68;3.47;;;45.00;18.80;;;;;;6225492;28;20036;-73
2023/05/29 14:17:18;;;;;;;5.97;3.78;;;43.80;19.50;;;;;;6243160;28;20078;-73
2023/05/29 14:20:27;;;;;;;8.18;3.47;;;41.90;21.00;;;;;;6225421;28;20511;-72
2023/05/29 14:23:38;;;;;;;7.22;3.60;;;40.40;22.40;;;;;;6243386;28;20033;-71
2023/05/29 14:26:46;;;;;;;5.88;3.58;;;39.80;22.90;;;;;;6243562;28;20033;-72
2023/05/29 14:29:55;;;;;;;5.85;4.07;;;39.00;23.60;;;;;;6243296;28;20138;-72
2023/05/29 14:33:07;;;;;;;5.95;3.20;;;38.40;24.20;;;;;;6233247;28;20521;-72
2023/05/29 14:36:19;;;;;;;7.28;3.35;;;37.70;24.80;;;;;;6218764;28;20087;-72
2023/05/29 14:39:26;;;;;;;5.53;3.28;;;36.60;25.70;;;;;;6218667;28;20034;-72
2023/05/29 14:42:36;;;;;;;6.22;3.50;;;35.60;26.70;;;;;;6219179;28;20125;-72
2023/05/29 14:45:45;;;;;;;9.75;3.63;;;34.80;27.40;;;;;;6218931;28;20038;-74
2023/05/29 14:48:54;;;;;;;7.50;3.63;;;34.40;27.70;;;;;;6227335;28;20159;-72
2023/05/29 14:52:04;;;;;;;8.00;3.47;;;34.10;28.00;;;;;;6235341;28;20030;-72
2023/05/29 14:55:14;;;;;;;11.70;4.07;;;33.80;28.40;;;;;;6218764;28;20068;-72
2023/05/29 14:58:25;;;;;;;11.98;3.80;;;33.20;28.90;;;;;;6218430;28;20032;-74
2023/05/29 15:01:34;;;;;;;9.00;3.55;;;32.50;30.10;;;;;;6218536;28;20050;-73
2023/05/29 15:04:42;;;;;;;9.13;4.20;;;31.80;31.40;;;;;;6233283;28;20144;-73
2023/05/29 15:07:50;;;;;;;10.60;3.65;;;31.20;32.60;;;;;;6242729;28;20061;-74
2023/05/29 15:11:03;;;;;;;9.60;4.00;;;30.60;34.10;;;;;;6224726;28;20044;-74
2023/05/29 15:14:14;;;;;;;9.35;4.18;;;30.10;35.50;;;;;;6242671;28;20041;-73
2023/05/29 15:17:26;;;;;;;11.43;4.43;;;29.60;36.70;;;;;;6225142;28;20048;-74
2023/05/29 15:20:35;;;;;;;9.95;3.97;;;29.20;38.20;;;;;;6224138;28;20025;-72
2023/05/29 15:23:45;;;;;;;10.50;3.63;;;28.80;39.40;;;;;;6224828;28;20041;-74
2023/05/29 15:26:52;;;;;;;7.87;3.60;;;28.40;40.10;;;;;;6242623;28;20044;-72
2023/05/29 15:30:19;;;;;;;;;;;28.10;41.00;;;;;;6224125;28;20280;-72
2023/05/29 15:33:28;;;;;;;11.57;3.78;;;27.90;41.60;;;;;;6228028;28;20086;-73
2023/05/29 15:36:39;;;;;;;7.13;3.60;;;27.70;42.10;;;;;;6217922;28;20021;-73
2023/05/29 15:39:45;;;;;;;7.97;3.65;;;27.40;42.40;;;;;;6216118;28;20061;-72
2023/05/29 15:42:53;;;;;;;7.05;3.63;;;27.20;42.80;;;;;;6215993;28;20033;-72
2023/05/29 15:46:08;;;;;;;8.95;3.40;;;27.00;43.40;;;;;;6234401;28;20060;-74
2023/05/29 15:49:19;;;;;;;15.55;4.53;;;26.80;44.00;;;;;;6230024;28;20037;-72
2023/05/29 15:52:29;;;;;;;8.98;4.25;;;26.70;45.00;;;;;;6221660;28;20030;-74
2023/05/29 15:55:36;;;;;;;9.45;4.20;;;26.50;45.80;;;;;;6242383;28;20060;-73
2023/05/29 15:58:47;;;;;;;6.30;3.65;;;26.40;46.50;;;;;;6217162;28;20025;-72
2023/05/29 16:01:55;;;;;;;8.98;4.20;;;26.40;46.70;;;;;;6239063;28;20764;-72
2023/05/29 16:05:07;;;;;;;7.55;3.90;;;26.30;46.30;;;;;;6242207;28;20034;-72
2023/05/29 16:08:20;;;;;;;10.40;4.50;;;26.20;46.50;;;;;;6241864;28;20119;-71
2023/05/29 16:11:28;;;;;;;9.88;4.55;;;26.10;47.00;;;;;;6242010;28;20064;-72
2023/05/29 16:14:37;;;;;;;11.75;4.53;;;26.00;47.40;;;;;;6241565;28;20025;-73
2023/05/29 16:17:46;;;;;;;8.32;4.10;;;25.90;47.80;;;;;;6241195;28;20033;-72
2023/05/29 16:20:53;;;;;;;7.18;3.65;;;25.70;48.40;;;;;;6241513;28;20349;-72
2023/05/29 16:24:03;;;;;;;7.10;4.03;;;25.50;48.80;;;;;;6200789;28;20057;-72
2023/05/29 16:27:19;;;;;;;11.80;4.60;;;25.30;49.70;;;;;;6216885;28;20284;-72
2023/05/29 16:30:26;;;;;;;10.05;4.22;;;25.10;50.30;;;;;;6216514;28;20093;-71
2023/05/29 16:33:34;;;;;;;10.20;4.35;;;25.00;50.60;;;;;;6204239;28;20128;-72
2023/05/29 16:36:47;;;;;;;8.65;3.63;;;25.00;50.50;;;;;;6216545;28;20037;-72